createdAt,value
2023-03-30T00:02:09.383Z,4.02
2023-03-30T00:04:38.117Z,3.58
2023-03-30T00:05:47.877Z,4.13
2023-03-30T00:06:57.911Z,4.30
2023-03-30T00:08:07.649Z,3.35
2023-03-30T00:09:17.480Z,4.75
2023-03-30T00:11:42.865Z,3.62
2023-03-30T00:12:52.391Z,3.00
2023-03-30T00:14:01.431Z,5.07
2023-03-30T00:16:28.185Z,2.98
2023-03-30T00:18:52.662Z,4.22
2023-03-30T00:21:21.042Z,3.43
2023-03-30T00:23:48.304Z,3.33
2023-03-30T00:26:15.425Z,3.10
2023-03-30T00:28:39.033Z,3.25
2023-03-30T00:29:49.661Z,3.80
2023-03-30T00:31:00.221Z,4.20
2023-03-30T00:32:09.158Z,3.90
2023-03-30T00:34:35.167Z,5.62
2023-03-30T00:36:59.403Z,4.46
2023-03-30T00:38:08.628Z,4.45
2023-03-30T00:42:17.601Z,8.05
2023-03-30T00:43:28.491Z,7.17
2023-03-30T00:46:15.383Z,9.10
2023-03-30T00:48:41.468Z,10.83
2023-03-30T00:49:51.348Z,9.72
2023-03-30T00:51:11.705Z,9.55
2023-03-30T00:53:43.641Z,16.72
2023-03-30T00:54:56.369Z,21.33
2023-03-30T00:56:08.696Z,20.13
2023-03-30T00:58:40.061Z,18.67
2023-03-30T00:59:52.134Z,18.62
2023-03-30T01:01:05.836Z,20.05
2023-03-30T01:02:17.065Z,19.45
2023-03-30T01:06:02.200Z,20.32
2023-03-30T01:07:12.955Z,17.98
2023-03-30T01:10:48.211Z,15.75
2023-03-30T01:13:15.511Z,18.85
2023-03-30T01:15:43.731Z,22.15
2023-03-30T01:18:33.014Z,21.68
2023-03-30T01:22:50.245Z,18.82
2023-03-30T01:24:23.034Z,21.12
2023-03-30T01:28:47.113Z,15.70
2023-03-30T01:31:50.852Z,10.75
2023-03-30T01:34:48.889Z,6.12
2023-03-30T01:37:59.151Z,5.35
2023-03-30T01:39:11.820Z,3.98
2023-03-30T01:40:25.493Z,5.87
2023-03-30T01:43:21.123Z,3.18
2023-03-30T01:44:34.465Z,4.10
2023-03-30T01:45:52.231Z,4.28
2023-03-30T01:47:24.193Z,4.03
2023-03-30T01:48:45.502Z,3.67
2023-03-30T01:51:26.638Z,4.13
2023-03-30T01:52:41.612Z,5.75
2023-03-30T01:55:20.998Z,3.98
2023-03-30T01:58:11.826Z,3.44
2023-03-30T02:00:50.905Z,4.33
2023-03-30T02:02:04.835Z,3.17
2023-03-30T02:04:42.696Z,2.98
2023-03-30T02:07:15.036Z,2.87
2023-03-30T02:09:46.298Z,3.55
2023-03-30T02:12:14.782Z,3.52
2023-03-30T02:13:28.722Z,4.25
2023-03-30T02:16:03.077Z,3.75
2023-03-30T02:17:23.115Z,2.98
2023-03-30T02:19:49.224Z,3.88
2023-03-30T02:22:18.237Z,3.62
2023-03-30T02:24:52.172Z,3.27
2023-03-30T02:27:17.473Z,3.38
2023-03-30T02:28:27.201Z,3.70
2023-03-30T02:30:56.312Z,2.65
2023-03-30T02:33:38.882Z,2.28
2023-03-30T02:36:16.527Z,3.83
2023-03-30T02:39:16.520Z,2.77
2023-03-30T02:42:08.018Z,3.05
2023-03-30T02:45:25.496Z,3.70
2023-03-30T02:48:38.505Z,3.50
2023-03-30T02:51:35.127Z,3.10
2023-03-30T02:53:36.151Z,5.00
2023-03-30T02:57:47.232Z,5.05
2023-03-30T03:01:29.309Z,3.85
2023-03-30T03:04:04.601Z,4.05
2023-03-30T03:06:33.163Z,4.23
2023-03-30T03:09:00.832Z,4.70
2023-03-30T03:11:26.754Z,4.55
2023-03-30T03:13:52.045Z,3.92
2023-03-30T03:16:17.414Z,3.95
2023-03-30T03:18:50.419Z,5.00
2023-03-30T03:20:01.349Z,3.98
2023-03-30T03:22:31.057Z,5.02
2023-03-30T03:24:57.571Z,4.00
2023-03-30T03:26:50.210Z,4.02
2023-03-30T03:28:00.863Z,4.00
2023-03-30T03:30:28.516Z,3.20
2023-03-30T03:31:40.035Z,4.33
2023-03-30T03:34:07.276Z,3.98
2023-03-30T03:37:30.375Z,3.63
2023-03-30T03:39:55.278Z,3.83
2023-03-30T03:42:21.732Z,3.97
2023-03-30T03:45:13.193Z,4.00
2023-03-30T03:47:55.734Z,5.23
2023-03-30T03:50:24.313Z,3.60
2023-03-30T03:51:36.445Z,4.00
2023-03-30T03:52:47.513Z,3.90
2023-03-30T03:53:58.126Z,4.10
2023-03-30T03:55:09.362Z,4.20
2023-03-30T03:57:36.624Z,5.78
2023-03-30T03:58:46.014Z,4.92
2023-03-30T03:59:57.684Z,8.33
2023-03-30T04:02:24.135Z,4.32
2023-03-30T04:04:51.982Z,5.63
2023-03-30T04:06:02.553Z,4.50
2023-03-30T04:07:12.445Z,4.25
2023-03-30T04:09:37.698Z,6.27
2023-03-30T04:11:06.046Z,4.63
2023-03-30T04:13:32.846Z,4.53
2023-03-30T04:16:09.461Z,4.30
2023-03-30T04:18:49.406Z,6.30
2023-03-30T04:22:19.311Z,3.87
2023-03-30T04:25:06.130Z,3.05
2023-03-30T04:26:35.334Z,43.62
2023-03-30T04:29:58.379Z,4.33
2023-03-30T04:32:39.323Z,4.80
2023-03-30T04:35:23.747Z,4.45
2023-03-30T04:36:52.105Z,3.22
2023-03-30T04:38:14.518Z,3.00
2023-03-30T04:40:45.643Z,5.50
2023-03-30T04:43:12.899Z,4.48
2023-03-30T04:45:42.675Z,3.28
2023-03-30T04:48:26.260Z,4.22
2023-03-30T04:50:21.561Z,4.00
2023-03-30T04:51:49.074Z,5.12
2023-03-30T04:55:31.715Z,3.33
2023-03-30T04:58:02.036Z,5.50
2023-03-30T04:59:57.533Z,5.30
2023-03-30T05:02:41.483Z,5.82
2023-03-30T05:06:04.653Z,4.10
2023-03-30T05:09:28.751Z,3.60
2023-03-30T05:12:16.225Z,4.08
2023-03-30T05:14:52.871Z,4.00
2023-03-30T05:16:57.596Z,4.07
2023-03-30T05:18:09.402Z,3.47
2023-03-30T05:19:37.542Z,3.80
2023-03-30T05:20:49.786Z,3.30
2023-03-30T05:24:05.283Z,4.95
2023-03-30T05:26:49.305Z,8.55
2023-03-30T05:30:04.628Z,5.28
2023-03-30T05:31:24.927Z,4.27
2023-03-30T05:34:33.480Z,14.15
2023-03-30T05:37:02.844Z,4.05
2023-03-30T05:39:33.528Z,5.48
2023-03-30T05:42:19.902Z,5.63
2023-03-30T05:45:38.054Z,4.58
2023-03-30T05:48:10.983Z,6.80
2023-03-30T05:49:36.549Z,5.02
2023-03-30T05:52:04.459Z,6.68
2023-03-30T05:55:30.730Z,7.55
2023-03-30T05:58:08.863Z,6.90
2023-03-30T06:00:42.188Z,9.62
2023-03-30T06:03:12.394Z,8.43
2023-03-30T06:05:41.313Z,8.78
2023-03-30T06:08:09.322Z,9.68
2023-03-30T06:10:34.973Z,10.67
2023-03-30T06:11:44.166Z,11.82
2023-03-30T06:12:58.492Z,7.58
2023-03-30T06:14:12.553Z,5.55
2023-03-30T06:16:39.729Z,8.12
2023-03-30T06:19:07.672Z,5.32
2023-03-30T06:21:33.483Z,9.05
2023-03-30T06:24:47.711Z,7.05
2023-03-30T06:27:33.111Z,6.27
2023-03-30T06:30:00.373Z,10.77
2023-03-30T06:32:26.678Z,8.23
2023-03-30T06:35:36.981Z,7.83
2023-03-30T06:38:03.012Z,8.88
2023-03-30T06:39:13.466Z,7.18
2023-03-30T06:41:38.636Z,8.30
2023-03-30T06:44:05.252Z,9.65
2023-03-30T06:45:23.661Z,6.92
2023-03-30T06:47:47.917Z,4.43
2023-03-30T06:50:13.006Z,4.35
2023-03-30T06:52:57.440Z,4.25
2023-03-30T06:54:06.989Z,6.22
2023-03-30T06:56:31.322Z,4.32
2023-03-30T06:59:00.301Z,8.50
2023-03-30T07:01:35.299Z,6.70
2023-03-30T07:04:10.687Z,6.35
2023-03-30T07:05:24.373Z,3.03
2023-03-30T07:06:38.434Z,2.70
2023-03-30T07:07:47.764Z,1.60
2023-03-30T07:10:13.082Z,3.30
2023-03-30T07:12:38.200Z,3.93
2023-03-30T07:15:07.434Z,2.73
2023-03-30T07:17:34.035Z,3.68
2023-03-30T07:19:58.176Z,3.22
2023-03-30T07:22:23.316Z,5.45
2023-03-30T07:23:32.654Z,3.82
2023-03-30T07:25:56.783Z,3.02
2023-03-30T07:28:24.018Z,3.83
2023-03-30T07:29:33.108Z,5.05
2023-03-30T07:31:57.727Z,4.02
2023-03-30T07:34:24.498Z,4.22
2023-03-30T07:35:37.183Z,4.73
2023-03-30T07:36:48.998Z,3.65
2023-03-30T07:39:13.877Z,4.42
2023-03-30T07:41:40.146Z,4.52
2023-03-30T07:44:10.560Z,3.48
2023-03-30T07:46:35.646Z,3.90
2023-03-30T07:49:01.130Z,1.97
2023-03-30T07:51:29.033Z,2.45
2023-03-30T07:54:37.786Z,1.57
2023-03-30T07:57:28.665Z,1.85
2023-03-30T07:59:55.604Z,1.67
2023-03-30T08:02:26.477Z,3.32
2023-03-30T08:04:53.960Z,2.80
2023-03-30T08:07:31.995Z,1.95
2023-03-30T08:09:58.614Z,3.08
2023-03-30T08:11:11.495Z,3.45
2023-03-30T08:12:22.590Z,4.20
2023-03-30T08:14:48.728Z,3.45
2023-03-30T08:17:14.562Z,3.63
2023-03-30T08:18:23.789Z,5.17
2023-03-30T08:19:32.864Z,4.15
2023-03-30T08:20:42.822Z,2.20
2023-03-30T08:23:10.177Z,2.23
2023-03-30T08:24:20.250Z,2.25
2023-03-30T08:26:46.023Z,1.57
2023-03-30T08:29:13.430Z,3.43
2023-03-30T08:31:38.384Z,3.78
2023-03-30T08:34:04.018Z,5.60
2023-03-30T08:36:48.396Z,6.92
2023-03-30T08:39:13.249Z,4.40
2023-03-30T08:42:02.407Z,2.30
2023-03-30T08:44:37.348Z,4.57
2023-03-30T08:47:09.480Z,2.65
2023-03-30T08:49:46.558Z,5.98
2023-03-30T08:52:22.001Z,4.24
2023-03-30T08:53:33.626Z,5.78
2023-03-30T08:54:42.819Z,5.97
2023-03-30T08:59:21.227Z,3.83
2023-03-30T09:03:43.199Z,3.08
2023-03-30T09:06:23.925Z,4.95
2023-03-30T09:09:02.591Z,3.17
2023-03-30T09:10:14.815Z,4.25
2023-03-30T09:12:58.764Z,2.48
2023-03-30T09:16:56.616Z,3.82
2023-03-30T09:18:25.356Z,3.87
2023-03-30T09:21:02.625Z,7.62
2023-03-30T09:23:31.697Z,4.65
2023-03-30T09:26:16.383Z,3.23
2023-03-30T09:29:05.133Z,1.80
2023-03-30T09:30:21.333Z,3.17
2023-03-30T09:31:34.595Z,3.50
2023-03-30T09:34:10.734Z,3.08
2023-03-30T09:37:01.940Z,2.08
2023-03-30T09:38:13.754Z,3.73
2023-03-30T09:40:51.223Z,3.67
2023-03-30T09:42:20.836Z,2.50
2023-03-30T09:43:45.725Z,2.05
2023-03-30T09:46:31.807Z,1.83
2023-03-30T09:49:02.836Z,4.85
2023-03-30T09:51:42.703Z,3.53
2023-03-30T09:53:06.257Z,3.88
2023-03-30T09:55:51.651Z,3.50
2023-03-30T09:57:01.279Z,3.28
2023-03-30T09:58:18.859Z,2.78
2023-03-30T10:02:21.135Z,2.58
2023-03-30T10:03:31.360Z,2.22
2023-03-30T10:06:20.298Z,3.90
2023-03-30T10:08:55.450Z,3.17
2023-03-30T10:10:25.824Z,5.40
2023-03-30T10:14:34.402Z,3.38
2023-03-30T10:17:06.577Z,2.58
2023-03-30T10:19:45.301Z,5.06
2023-03-30T10:22:17.676Z,3.90
2023-03-30T10:23:34.092Z,4.12
2023-03-30T10:26:18.107Z,3.03
2023-03-30T10:29:00.395Z,3.13
2023-03-30T10:31:32.697Z,2.12
2023-03-30T10:34:04.657Z,4.65
2023-03-30T10:36:36.960Z,2.85
2023-03-30T10:37:47.696Z,1.95
2023-03-30T10:41:48.863Z,1.85
2023-03-30T10:44:21.582Z,2.55
2023-03-30T10:47:20.483Z,1.90
2023-03-30T10:50:29.066Z,2.17
2023-03-30T10:52:00.175Z,2.85
2023-03-30T10:54:57.138Z,2.25
2023-03-30T10:58:07.234Z,1.92
2023-03-30T10:59:44.352Z,2.52
2023-03-30T11:03:13.432Z,3.12
2023-03-30T11:08:58.773Z,3.37
2023-03-30T11:10:20.912Z,2.60
2023-03-30T11:13:06.913Z,4.97
2023-03-30T11:15:57.221Z,1.58
2023-03-30T11:19:03.890Z,4.40
2023-03-30T11:21:59.969Z,8.95
2023-03-30T11:24:41.441Z,2.75
2023-03-30T11:27:29.702Z,3.43
2023-03-30T11:30:21.003Z,1.82
2023-03-30T11:33:28.335Z,2.20
2023-03-30T11:36:10.745Z,1.93
2023-03-30T11:39:13.672Z,2.95
2023-03-30T11:41:42.428Z,5.52
2023-03-30T11:44:10.085Z,4.72
2023-03-30T11:47:49.212Z,3.48
2023-03-30T11:50:49.141Z,4.25
2023-03-30T11:53:58.376Z,1.47
2023-03-30T11:55:23.536Z,3.45
2023-03-30T11:58:21.256Z,5.05
2023-03-30T12:01:35.550Z,3.85
2023-03-30T12:05:56.760Z,2.83
2023-03-30T12:08:44.449Z,3.65
2023-03-30T12:11:43.819Z,4.38
2023-03-30T12:12:55.446Z,3.08
2023-03-30T12:15:56.515Z,3.15
2023-03-30T12:18:50.228Z,2.08
2023-03-30T12:21:33.520Z,2.32
2023-03-30T12:24:28.765Z,4.48
2023-03-30T12:27:08.517Z,5.13
2023-03-30T12:32:01.654Z,2.18
2023-03-30T12:34:37.393Z,2.58
2023-03-30T12:37:25.682Z,2.78
2023-03-30T12:38:46.211Z,2.85
2023-03-30T12:41:18.740Z,2.57
2023-03-30T12:44:06.196Z,1.92
2023-03-30T12:48:31.533Z,1.67
2023-03-30T12:52:57.352Z,2.37
2023-03-30T12:54:26.172Z,4.07
2023-03-30T12:57:10.022Z,3.87
2023-03-30T12:58:46.137Z,1.72
2023-03-30T13:00:17.369Z,2.08
2023-03-30T13:03:10.789Z,2.98
2023-03-30T13:04:24.137Z,2.08
2023-03-30T13:05:40.402Z,3.83
2023-03-30T13:06:59.063Z,2.33
2023-03-30T13:09:31.340Z,4.40
2023-03-30T13:10:43.749Z,3.40
2023-03-30T13:14:45.725Z,2.93
2023-03-30T13:17:20.451Z,3.05
2023-03-30T13:18:35.282Z,2.38
2023-03-30T13:22:30.480Z,4.08
2023-03-30T13:23:40.286Z,3.32
2023-03-30T13:26:34.697Z,3.02
2023-03-30T13:29:08.902Z,3.80
2023-03-30T13:30:19.838Z,2.70
2023-03-30T13:34:51.474Z,2.10
2023-03-30T13:37:36.829Z,3.38
2023-03-30T13:40:38.693Z,6.20
2023-03-30T13:43:09.045Z,4.50
2023-03-30T13:46:20.441Z,1.53
2023-03-30T13:49:27.757Z,1.72
2023-03-30T13:50:38.106Z,1.78
2023-03-30T13:53:10.712Z,4.07
2023-03-30T13:55:42.636Z,2.57
2023-03-30T13:58:32.664Z,2.75
2023-03-30T14:01:03.293Z,1.72
2023-03-30T14:02:17.770Z,3.63
2023-03-30T14:06:45.808Z,2.98
2023-03-30T14:09:16.041Z,2.77
2023-03-30T14:11:46.162Z,2.38
2023-03-30T14:14:23.456Z,1.72
2023-03-30T14:16:51.890Z,2.42
2023-03-30T14:19:26.302Z,2.10
2023-03-30T14:22:17.718Z,2.35
2023-03-30T14:25:04.493Z,2.57
2023-03-30T14:27:41.447Z,3.67
2023-03-30T14:30:24.960Z,3.05
2023-03-30T14:31:42.193Z,3.73
2023-03-30T14:34:32.593Z,2.38
2023-03-30T14:37:10.528Z,3.95
2023-03-30T14:39:43.847Z,5.17
2023-03-30T14:43:41.354Z,3.55
2023-03-30T14:46:11.937Z,1.85
2023-03-30T14:48:43.726Z,2.85
2023-03-30T14:51:29.068Z,3.93
2023-03-30T14:52:45.010Z,2.50
2023-03-30T14:55:18.846Z,4.47
2023-03-30T14:57:45.217Z,6.47
2023-03-30T14:58:57.015Z,6.35
2023-03-30T15:00:21.576Z,3.03
2023-03-30T15:02:53.832Z,6.35
2023-03-30T15:05:32.044Z,4.30
2023-03-30T15:07:59.086Z,3.35
2023-03-30T15:10:35.887Z,2.65
2023-03-30T15:13:07.037Z,3.00
2023-03-30T15:15:35.446Z,5.78
2023-03-30T15:18:05.155Z,7.63
2023-03-30T15:19:21.468Z,10.08
2023-03-30T15:21:51.338Z,4.77
2023-03-30T15:23:00.933Z,35.85
2023-03-30T15:24:13.822Z,5.25
2023-03-30T15:25:27.173Z,4.95
2023-03-30T15:26:39.975Z,4.68
2023-03-30T15:29:13.955Z,4.28
2023-03-30T15:30:43.213Z,2.48
2023-03-30T15:33:36.494Z,1.70
2023-03-30T15:35:18.294Z,3.17
2023-03-30T15:39:27.086Z,4.22
2023-03-30T15:42:04.871Z,2.88
2023-03-30T15:43:17.138Z,4.10
2023-03-30T15:44:26.984Z,3.78
2023-03-30T15:45:36.811Z,5.30
2023-03-30T15:46:48.686Z,3.28
2023-03-30T15:49:17.389Z,3.20
2023-03-30T15:50:26.617Z,3.25
2023-03-30T15:54:39.318Z,6.93
2023-03-30T15:57:14.450Z,6.93
2023-03-30T15:58:26.437Z,4.82
2023-03-30T16:00:57.004Z,5.57
2023-03-30T16:02:32.695Z,8.75
2023-03-30T16:03:57.743Z,11.97
2023-03-30T16:06:27.108Z,7.78
2023-03-30T16:08:54.027Z,6.75
2023-03-30T16:11:21.534Z,6.38
2023-03-30T16:13:48.505Z,5.75
2023-03-30T16:16:15.119Z,9.03
2023-03-30T16:18:42.474Z,6.17
2023-03-30T16:21:09.823Z,5.70
2023-03-30T16:23:34.170Z,5.22
2023-03-30T16:25:58.763Z,5.93
2023-03-30T16:28:25.785Z,6.97
2023-03-30T16:29:34.342Z,6.52
2023-03-30T16:30:47.267Z,8.00
2023-03-30T16:33:11.420Z,11.47
2023-03-30T16:35:38.774Z,11.40
2023-03-30T16:36:49.924Z,12.53
2023-03-30T16:40:43.614Z,12.40
2023-03-30T16:41:53.746Z,12.25
2023-03-30T16:43:04.115Z,11.20
2023-03-30T16:45:28.501Z,46.08
2023-03-30T16:46:37.481Z,20.63
2023-03-30T16:47:48.746Z,16.95
2023-03-30T16:50:25.523Z,12.12
2023-03-30T16:52:50.898Z,11.98
2023-03-30T16:55:15.587Z,11.30
2023-03-30T16:56:26.528Z,11.88
2023-03-30T16:57:36.094Z,13.07
2023-03-30T16:58:46.092Z,14.83
2023-03-30T17:01:13.573Z,22.30
2023-03-30T17:03:37.112Z,24.27
2023-03-30T17:06:00.768Z,47.05
2023-03-30T17:08:28.650Z,17.62
2023-03-30T17:10:55.860Z,11.63
2023-03-30T17:13:21.305Z,11.98
2023-03-30T17:15:45.947Z,8.60
2023-03-30T17:18:14.068Z,8.53
2023-03-30T17:19:26.179Z,8.96
2023-03-30T17:21:57.278Z,7.42
2023-03-30T17:23:08.566Z,9.55
2023-03-30T17:25:32.697Z,6.78
2023-03-30T17:26:42.239Z,6.45
2023-03-30T17:29:07.077Z,8.92
2023-03-30T17:31:35.126Z,7.12
2023-03-30T17:32:45.369Z,6.58
2023-03-30T17:35:10.185Z,7.75
2023-03-30T17:37:38.973Z,6.10
2023-03-30T17:40:13.262Z,8.93
2023-03-30T17:42:37.248Z,6.60
2023-03-30T17:45:05.936Z,40.43
2023-03-30T17:47:32.893Z,9.65
2023-03-30T17:49:59.480Z,11.32
2023-03-30T17:51:09.556Z,8.13
2023-03-30T17:53:33.498Z,6.93
2023-03-30T17:55:57.725Z,8.95
2023-03-30T17:57:09.411Z,5.73
2023-03-30T17:58:29.669Z,6.87
2023-03-30T17:59:38.359Z,5.92
2023-03-30T18:02:03.372Z,9.62
2023-03-30T18:04:28.502Z,5.95
2023-03-30T18:05:38.288Z,9.15
2023-03-30T18:08:05.554Z,6.10
2023-03-30T18:10:36.652Z,5.22
2023-03-30T18:11:46.451Z,7.90
2023-03-30T18:14:17.987Z,6.22
2023-03-30T18:16:44.025Z,6.38
2023-03-30T18:19:12.184Z,6.98
2023-03-30T18:21:45.800Z,5.13
2023-03-30T18:22:55.040Z,8.40
2023-03-30T18:25:31.485Z,17.98
2023-03-30T18:27:49.774Z,16.43
2023-03-30T18:30:29.174Z,14.25
2023-03-30T18:32:57.259Z,16.33
2023-03-30T18:35:26.557Z,18.70
2023-03-30T18:36:36.328Z,16.30
2023-03-30T18:39:02.049Z,17.03
2023-03-30T18:41:39.989Z,15.65
2023-03-30T18:44:06.196Z,14.07
2023-03-30T18:46:42.010Z,14.16
2023-03-30T18:47:51.325Z,14.43
2023-03-30T18:49:01.230Z,11.77
2023-03-30T18:50:20.657Z,17.27
2023-03-30T18:53:07.946Z,20.30
2023-03-30T18:55:40.066Z,28.73
2023-03-30T18:56:49.382Z,32.30
2023-03-30T18:59:14.366Z,37.12
2023-03-30T19:01:47.649Z,36.97
2023-03-30T19:04:13.154Z,46.60
2023-03-30T19:05:24.521Z,49.88
2023-03-30T19:06:35.726Z,51.67
2023-03-30T19:07:45.659Z,49.25
2023-03-30T19:08:55.919Z,57.73
2023-03-30T19:11:25.542Z,68.28
2023-03-30T19:13:51.008Z,57.13
2023-03-30T19:16:16.306Z,57.57
2023-03-30T19:17:25.643Z,46.42
2023-03-30T19:19:49.900Z,33.90
2023-03-30T19:22:33.484Z,27.33
2023-03-30T19:24:57.716Z,28.02
2023-03-30T19:27:23.559Z,18.37
2023-03-30T19:29:47.955Z,26.12
2023-03-30T19:31:06.487Z,23.87
2023-03-30T19:33:31.232Z,29.10
2023-03-30T19:35:56.682Z,32.78
2023-03-30T19:38:22.600Z,23.35
2023-03-30T19:40:47.502Z,26.60
2023-03-30T19:43:11.501Z,17.90
2023-03-30T19:45:39.986Z,20.82
2023-03-30T19:48:04.881Z,17.55
2023-03-30T19:50:30.458Z,29.50
2023-03-30T19:51:40.124Z,23.57
2023-03-30T19:54:08.691Z,28.62
2023-03-30T19:56:33.662Z,43.75
2023-03-30T19:58:58.343Z,43.65
2023-03-30T20:01:26.844Z,40.92
2023-03-30T20:03:51.970Z,38.65
2023-03-30T20:05:02.994Z,41.15
2023-03-30T20:07:27.474Z,32.75
2023-03-30T20:09:51.257Z,45.67
2023-03-30T20:12:15.516Z,48.37
2023-03-30T20:14:41.474Z,53.57
2023-03-30T20:17:10.836Z,53.80
2023-03-30T20:19:38.443Z,160.50
2023-03-30T20:22:03.422Z,59.98
2023-03-30T20:24:27.192Z,57.82
2023-03-30T20:26:52.585Z,61.38
2023-03-30T20:29:17.508Z,63.95
2023-03-30T20:31:43.399Z,59.85
2023-03-30T20:34:10.783Z,54.73
2023-03-30T20:36:38.805Z,55.52
2023-03-30T20:39:05.133Z,46.37
2023-03-30T20:41:32.119Z,37.28
2023-03-30T20:44:00.034Z,47.38
2023-03-30T20:46:31.635Z,53.40
2023-03-30T20:48:59.350Z,56.37
2023-03-30T20:51:24.570Z,46.03
2023-03-30T20:53:50.871Z,53.82
2023-03-30T20:56:16.562Z,53.37
2023-03-30T20:58:41.205Z,49.72
2023-03-30T21:01:14.740Z,53.08
2023-03-30T21:03:41.654Z,106.53
2023-03-30T21:06:08.812Z,50.00
2023-03-30T21:08:33.624Z,40.93
2023-03-30T21:11:00.229Z,35.82
2023-03-30T21:14:35.979Z,28.97
2023-03-30T21:17:07.468Z,22.45
2023-03-30T21:18:17.306Z,16.60
2023-03-30T21:20:41.241Z,13.90
2023-03-30T21:21:51.019Z,14.25
2023-03-30T21:24:16.892Z,10.77
2023-03-30T21:25:25.921Z,10.15
2023-03-30T21:27:52.273Z,21.32
2023-03-30T21:30:16.727Z,53.25
2023-03-30T21:32:41.028Z,11.67
2023-03-30T21:35:08.935Z,12.12
2023-03-30T21:36:18.722Z,13.50
2023-03-30T21:37:27.978Z,13.02
2023-03-30T21:39:51.847Z,23.27
2023-03-30T21:42:20.792Z,31.12
2023-03-30T21:44:48.388Z,37.13
2023-03-30T21:46:01.909Z,52.05
2023-03-30T21:48:30.659Z,52.33
2023-03-30T21:51:07.573Z,48.02
2023-03-30T21:52:17.328Z,39.70
2023-03-30T21:53:28.280Z,40.83
2023-03-30T21:54:37.247Z,42.13
2023-03-30T21:55:48.458Z,41.37
2023-03-30T21:58:12.800Z,46.55
2023-03-30T22:00:39.059Z,55.05
2023-03-30T22:03:04.274Z,60.12
2023-03-30T22:05:28.328Z,56.03
2023-03-30T22:08:14.238Z,49.73
2023-03-30T22:10:38.897Z,51.02
2023-03-30T22:13:03.319Z,47.98
2023-03-30T22:16:36.932Z,48.72
2023-03-30T22:17:46.403Z,48.37
2023-03-30T22:20:12.567Z,49.25
2023-03-30T22:22:41.550Z,53.23
2023-03-30T22:25:09.592Z,52.32
2023-03-30T22:27:35.481Z,56.32
2023-03-30T22:30:00.546Z,58.53
2023-03-30T22:32:35.066Z,64.92
2023-03-30T22:35:02.414Z,66.42
2023-03-30T22:37:33.612Z,86.77
2023-03-30T22:39:59.450Z,74.30
2023-03-30T22:42:24.574Z,84.18
2023-03-30T22:43:33.825Z,70.12
2023-03-30T22:45:59.522Z,69.75
2023-03-30T22:47:09.429Z,64.88
2023-03-30T22:49:33.940Z,63.68
2023-03-30T22:50:43.689Z,56.08
2023-03-30T22:53:09.444Z,59.60
2023-03-30T22:55:34.785Z,51.27
2023-03-30T22:58:00.906Z,49.95
2023-03-30T23:00:26.135Z,46.47
2023-03-30T23:02:52.879Z,48.78
2023-03-30T23:05:20.785Z,49.48
2023-03-30T23:07:49.126Z,46.66
2023-03-30T23:10:17.988Z,45.35
2023-03-30T23:12:46.361Z,45.83
2023-03-30T23:15:14.348Z,45.65
2023-03-30T23:17:39.712Z,42.55
2023-03-30T23:20:09.843Z,49.53
2023-03-30T23:22:37.648Z,46.82
2023-03-30T23:25:03.046Z,48.25
2023-03-30T23:27:27.020Z,41.62
2023-03-30T23:28:39.410Z,40.12
2023-03-30T23:31:13.154Z,41.05
2023-03-30T23:32:21.885Z,37.43
2023-03-30T23:34:46.680Z,42.58
2023-03-30T23:37:12.745Z,37.73
2023-03-30T23:38:21.872Z,41.95
2023-03-30T23:40:49.382Z,33.32
2023-03-30T23:41:58.651Z,32.88
2023-03-30T23:44:24.866Z,31.83
2023-03-30T23:46:50.285Z,30.65
2023-03-30T23:49:16.555Z,26.33
2023-03-30T23:51:41.569Z,26.03
2023-03-30T23:54:06.578Z,24.00
2023-03-30T23:56:36.512Z,22.25
2023-03-30T23:59:01.142Z,23.17
